RAM760R GMMN-LFPO
Flight info
| Callsign | RAM760R |
|---|---|
| Flight time | 2h 15m |
| Altitude | 38000 |
| Route | TOLSI1D TOLSI UG5 KORIS L27 VJF N10 HIJ M30 PARKA N858 DGO L176 LUSEM DCT LULUT DCT TUDRA/N0424F280 DCT BEVOL UT158 AMB AMB9E |
| Aircraft | B789/H-SDE1E2E3FGHIJ2J3J4J5M1RWXY/LB1D1 |
Departure
| Time | 2026-05-04 12:35 |
|---|---|
| Airport | Mohammed V International Airport (GMMN) |
Arrival
| Time | 2026-05-04 14:51 |
|---|---|
| Airport | Paris-Orly Airport (LFPO) |
| Time | Latitude | Longitude | Altitude | Speed | Heading |
|---|---|---|---|---|---|
| 2026-05-04 12:05 | 33.37530 | -7.58321 | 658 ft | 0 kts | 64° |
| 2026-05-04 12:22 | 33.37528 | -7.58327 | 658 ft | 4 kts | 64° |
| 2026-05-04 12:22 | 33.37517 | -7.58356 | 657 ft | 4 kts | 67° |
| 2026-05-04 12:22 | 33.37506 | -7.58382 | 656 ft | 4 kts | 71° |
| 2026-05-04 12:22 | 33.37507 | -7.58403 | 658 ft | 4 kts | 150° |
| 2026-05-04 12:23 | 33.37532 | -7.58413 | 658 ft | 4 kts | 167° |
| 2026-05-04 12:23 | 33.37546 | -7.58417 | 658 ft | 3 kts | 165° |
| 2026-05-04 12:27 | 33.37537 | -7.58414 | 657 ft | 2 kts | 165° |
| 2026-05-04 12:27 | 33.37516 | -7.58407 | 658 ft | 6 kts | 165° |
| 2026-05-04 12:28 | 33.37454 | -7.58387 | 658 ft | 12 kts | 164° |
| 2026-05-04 12:28 | 33.37354 | -7.58354 | 658 ft | 15 kts | 165° |
| 2026-05-04 12:28 | 33.37239 | -7.58316 | 658 ft | 14 kts | 165° |
| 2026-05-04 12:28 | 33.37124 | -7.58278 | 658 ft | 19 kts | 165° |
| 2026-05-04 12:29 | 33.37003 | -7.58239 | 658 ft | 15 kts | 166° |
| 2026-05-04 12:29 | 33.36949 | -7.58267 | 658 ft | 10 kts | 236° |
| 2026-05-04 12:29 | 33.36916 | -7.58359 | 658 ft | 10 kts | 252° |
| 2026-05-04 12:29 | 33.36880 | -7.58446 | 658 ft | 8 kts | 215° |
| 2026-05-04 12:30 | 33.36823 | -7.58449 | 658 ft | 11 kts | 169° |
| 2026-05-04 12:30 | 33.36731 | -7.58422 | 658 ft | 17 kts | 163° |
| 2026-05-04 12:30 | 33.36599 | -7.58375 | 658 ft | 23 kts | 164° |
| 2026-05-04 12:30 | 33.36460 | -7.58329 | 658 ft | 19 kts | 165° |
| 2026-05-04 12:31 | 33.36313 | -7.58279 | 658 ft | 21 kts | 163° |
| 2026-05-04 12:31 | 33.36157 | -7.58225 | 658 ft | 25 kts | 163° |
| 2026-05-04 12:31 | 33.35982 | -7.58166 | 658 ft | 28 kts | 164° |
| 2026-05-04 12:31 | 33.35811 | -7.58107 | 658 ft | 28 kts | 164° |
| 2026-05-04 12:32 | 33.35626 | -7.58043 | 658 ft | 21 kts | 164° |
| 2026-05-04 12:32 | 33.35378 | -7.57959 | 658 ft | 12 kts | 164° |
| 2026-05-04 12:32 | 33.35313 | -7.57950 | 658 ft | 15 kts | 193° |
| 2026-05-04 12:33 | 33.35227 | -7.58108 | 658 ft | 18 kts | 252° |
| 2026-05-04 12:33 | 33.35219 | -7.58224 | 659 ft | 15 kts | 284° |
| 2026-05-04 12:33 | 33.35301 | -7.58299 | 658 ft | 17 kts | 350° |
| 2026-05-04 12:33 | 33.35416 | -7.58331 | 656 ft | 6 kts | 343° |
| 2026-05-04 12:34 | 33.35418 | -7.58331 | 656 ft | 0 kts | 343° |
| 2026-05-04 12:35 | 33.35556 | -7.58379 | 655 ft | 60 kts | 344° |
| 2026-05-04 12:35 | 33.36253 | -7.58619 | 659 ft | 145 kts | 343° |
| 2026-05-04 12:35 | 33.37393 | -7.59016 | 987 ft | 188 kts | 343° |
| 2026-05-04 12:35 | 33.38703 | -7.59458 | 1766 ft | 204 kts | 345° |
| 2026-05-04 12:36 | 33.40125 | -7.59854 | 2631 ft | 221 kts | 353° |
| 2026-05-04 12:36 | 33.41711 | -7.59834 | 3598 ft | 232 kts | 6° |
| 2026-05-04 12:36 | 33.43293 | -7.59354 | 4769 ft | 238 kts | 20° |
| 2026-05-04 12:36 | 33.44771 | -7.58400 | 5860 ft | 248 kts | 34° |
| 2026-05-04 12:37 | 33.46036 | -7.56975 | 6877 ft | 259 kts | 48° |
| 2026-05-04 12:37 | 33.47194 | -7.55299 | 7900 ft | 266 kts | 48° |
| 2026-05-04 12:37 | 33.48400 | -7.53582 | 8956 ft | 272 kts | 49° |
| 2026-05-04 12:37 | 33.49632 | -7.51829 | 10021 ft | 278 kts | 49° |
| 2026-05-04 12:38 | 33.50901 | -7.50017 | 10979 ft | 283 kts | 49° |
| 2026-05-04 12:38 | 33.52179 | -7.48191 | 11902 ft | 289 kts | 48° |
| 2026-05-04 12:38 | 33.53486 | -7.46326 | 12854 ft | 295 kts | 48° |
| 2026-05-04 12:38 | 33.54822 | -7.44417 | 13798 ft | 302 kts | 48° |
| 2026-05-04 12:39 | 33.56310 | -7.42632 | 14575 ft | 304 kts | 26° |
| 2026-05-04 12:39 | 33.58236 | -7.41695 | 15170 ft | 311 kts | 6° |
| 2026-05-04 12:39 | 33.60407 | -7.41275 | 15446 ft | 336 kts | 4° |
| 2026-05-04 12:39 | 33.62814 | -7.40866 | 15679 ft | 363 kts | 4° |
| 2026-05-04 12:40 | 33.65405 | -7.40378 | 16031 ft | 385 kts | 5° |
| 2026-05-04 12:40 | 33.68053 | -7.39838 | 16964 ft | 388 kts | 5° |
| 2026-05-04 12:40 | 33.70741 | -7.39313 | 17771 ft | 394 kts | 4° |
| 2026-05-04 12:40 | 33.73472 | -7.38805 | 18567 ft | 400 kts | 4° |
| 2026-05-04 12:41 | 33.76239 | -7.38279 | 19278 ft | 405 kts | 4° |
| 2026-05-04 12:41 | 33.79038 | -7.37734 | 19991 ft | 410 kts | 4° |
| 2026-05-04 12:41 | 33.81867 | -7.37185 | 20683 ft | 414 kts | 4° |
| 2026-05-04 12:41 | 33.84723 | -7.36638 | 21372 ft | 419 kts | 3° |
| 2026-05-04 12:42 | 33.87615 | -7.36085 | 22022 ft | 423 kts | 3° |
| 2026-05-04 12:42 | 33.90535 | -7.35523 | 22680 ft | 428 kts | 3° |
| 2026-05-04 12:42 | 33.93490 | -7.34953 | 23309 ft | 432 kts | 3° |
| 2026-05-04 12:42 | 33.96471 | -7.34379 | 23888 ft | 436 kts | 3° |
| 2026-05-04 12:43 | 33.99482 | -7.33799 | 24395 ft | 439 kts | 3° |
| 2026-05-04 12:43 | 34.02514 | -7.33214 | 24924 ft | 443 kts | 2° |
| 2026-05-04 12:43 | 34.05567 | -7.32625 | 25411 ft | 446 kts | 2° |
| 2026-05-04 12:43 | 34.08640 | -7.32031 | 25897 ft | 449 kts | 2° |
| 2026-05-04 12:44 | 34.11713 | -7.31162 | 26356 ft | 461 kts | 13° |
| 2026-05-04 12:44 | 34.14682 | -7.29589 | 26792 ft | 471 kts | 21° |
| 2026-05-04 12:44 | 34.17624 | -7.27781 | 27189 ft | 475 kts | 21° |
| 2026-05-04 12:44 | 34.20582 | -7.25966 | 27646 ft | 479 kts | 21° |
| 2026-05-04 12:45 | 34.23565 | -7.24124 | 28068 ft | 483 kts | 20° |
| 2026-05-04 12:45 | 34.26564 | -7.22269 | 28492 ft | 486 kts | 20° |
| 2026-05-04 12:45 | 34.29591 | -7.20401 | 28892 ft | 490 kts | 20° |
| 2026-05-04 12:45 | 34.32637 | -7.18521 | 29288 ft | 494 kts | 20° |
| 2026-05-04 12:46 | 34.35711 | -7.16620 | 29673 ft | 498 kts | 20° |
| 2026-05-04 12:46 | 34.38806 | -7.14702 | 30063 ft | 501 kts | 20° |
| 2026-05-04 12:46 | 34.41918 | -7.12774 | 30391 ft | 504 kts | 20° |
| 2026-05-04 12:46 | 34.45045 | -7.10835 | 30733 ft | 507 kts | 20° |
| 2026-05-04 12:47 | 34.48189 | -7.08884 | 31034 ft | 509 kts | 20° |
| 2026-05-04 12:47 | 34.51349 | -7.06921 | 31346 ft | 512 kts | 20° |
| 2026-05-04 12:47 | 34.54524 | -7.04947 | 31649 ft | 514 kts | 20° |
| 2026-05-04 12:47 | 34.57720 | -7.02958 | 31928 ft | 517 kts | 20° |
| 2026-05-04 12:48 | 34.60924 | -7.00963 | 32209 ft | 519 kts | 20° |
| 2026-05-04 12:48 | 34.64151 | -6.98978 | 32477 ft | 521 kts | 20° |
| 2026-05-04 12:48 | 34.67406 | -6.97008 | 32737 ft | 524 kts | 20° |
| 2026-05-04 12:48 | 34.70674 | -6.95015 | 33005 ft | 526 kts | 20° |
| 2026-05-04 12:49 | 34.73937 | -6.93000 | 33256 ft | 529 kts | 20° |
| 2026-05-04 12:49 | 34.77229 | -6.90970 | 33498 ft | 531 kts | 20° |
| 2026-05-04 12:49 | 34.80528 | -6.88951 | 33725 ft | 533 kts | 20° |
| 2026-05-04 12:49 | 34.83840 | -6.86919 | 34044 ft | 533 kts | 20° |
| 2026-05-04 12:50 | 34.87148 | -6.84877 | 34353 ft | 533 kts | 20° |
| 2026-05-04 12:50 | 34.90411 | -6.82862 | 34648 ft | 532 kts | 20° |
| 2026-05-04 12:50 | 34.93755 | -6.80802 | 34947 ft | 532 kts | 20° |
| 2026-05-04 12:50 | 34.97018 | -6.78791 | 35239 ft | 532 kts | 20° |
| 2026-05-04 12:51 | 35.00310 | -6.76755 | 35551 ft | 531 kts | 20° |
| 2026-05-04 12:51 | 35.03600 | -6.74718 | 35840 ft | 530 kts | 20° |
| 2026-05-04 12:51 | 35.06890 | -6.72682 | 36138 ft | 529 kts | 20° |
| 2026-05-04 12:51 | 35.10173 | -6.70649 | 36444 ft | 529 kts | 19° |
| 2026-05-04 12:52 | 35.13449 | -6.68618 | 36728 ft | 528 kts | 19° |
| 2026-05-04 12:52 | 35.16720 | -6.66587 | 36998 ft | 528 kts | 19° |
| 2026-05-04 12:52 | 35.19990 | -6.64555 | 37279 ft | 527 kts | 19° |
| 2026-05-04 12:52 | 35.23261 | -6.62521 | 37535 ft | 527 kts | 19° |
| 2026-05-04 12:53 | 35.26527 | -6.60489 | 37854 ft | 526 kts | 19° |
| 2026-05-04 12:53 | 35.29790 | -6.58456 | 37991 ft | 528 kts | 19° |
| 2026-05-04 12:53 | 35.33068 | -6.56415 | 37987 ft | 529 kts | 19° |
| 2026-05-04 12:54 | 35.39598 | -6.52331 | 37991 ft | 525 kts | 19° |
| 2026-05-04 12:54 | 35.46100 | -6.48266 | 37991 ft | 525 kts | 19° |
| 2026-05-04 12:55 | 35.52553 | -6.44009 | 37994 ft | 527 kts | 20° |
| 2026-05-04 12:55 | 35.59021 | -6.39813 | 38003 ft | 525 kts | 20° |
| 2026-05-04 12:56 | 35.65450 | -6.35601 | 38005 ft | 525 kts | 20° |
| 2026-05-04 12:56 | 35.71897 | -6.31380 | 38000 ft | 525 kts | 20° |
| 2026-05-04 12:57 | 35.78341 | -6.27168 | 38004 ft | 525 kts | 20° |
| 2026-05-04 12:57 | 35.84794 | -6.22970 | 38059 ft | 524 kts | 20° |
| 2026-05-04 12:58 | 35.91273 | -6.18790 | 38003 ft | 525 kts | 20° |
| 2026-05-04 12:58 | 35.97703 | -6.14623 | 38001 ft | 526 kts | 20° |
| 2026-05-04 12:59 | 36.04175 | -6.10423 | 37990 ft | 526 kts | 20° |
| 2026-05-04 12:59 | 36.10648 | -6.06216 | 37992 ft | 526 kts | 20° |
| 2026-05-04 13:00 | 36.17128 | -6.01992 | 37994 ft | 526 kts | 20° |
| 2026-05-04 13:00 | 36.23682 | -5.98087 | 38008 ft | 515 kts | 9° |
| 2026-05-04 13:00 | 36.27111 | -5.97006 | 37994 ft | 503 kts | 359° |
| 2026-05-04 13:01 | 36.30230 | -5.96443 | 37989 ft | 501 kts | 359° |
| 2026-05-04 13:01 | 36.37141 | -5.95207 | 37987 ft | 503 kts | 359° |
| 2026-05-04 13:02 | 36.44072 | -5.93984 | 37979 ft | 503 kts | 359° |
| 2026-05-04 13:02 | 36.51002 | -5.92748 | 37971 ft | 503 kts | 359° |
| 2026-05-04 13:03 | 36.57943 | -5.91515 | 37979 ft | 505 kts | 359° |
| 2026-05-04 13:03 | 36.64903 | -5.90271 | 37976 ft | 506 kts | 359° |
| 2026-05-04 13:04 | 36.71880 | -5.89025 | 37979 ft | 506 kts | 359° |
| 2026-05-04 13:04 | 36.78857 | -5.87774 | 37979 ft | 506 kts | 359° |
| 2026-05-04 13:05 | 36.85831 | -5.86524 | 37975 ft | 506 kts | 359° |
| 2026-05-04 13:05 | 36.92799 | -5.85271 | 37958 ft | 506 kts | 360° |
| 2026-05-04 13:06 | 36.99776 | -5.84015 | 37957 ft | 506 kts | 360° |
| 2026-05-04 13:06 | 37.06746 | -5.82758 | 37945 ft | 507 kts | 360° |
| 2026-05-04 13:07 | 37.13727 | -5.81495 | 37944 ft | 506 kts | 0° |
| 2026-05-04 13:07 | 37.20691 | -5.80235 | 37945 ft | 506 kts | 0° |
| 2026-05-04 13:08 | 37.27660 | -5.78970 | 37951 ft | 506 kts | 0° |
| 2026-05-04 13:08 | 37.34636 | -5.77702 | 37947 ft | 506 kts | 0° |
| 2026-05-04 13:09 | 37.41594 | -5.76305 | 37979 ft | 512 kts | 8° |
| 2026-05-04 13:09 | 37.48306 | -5.72890 | 37930 ft | 525 kts | 19° |
| 2026-05-04 13:10 | 37.54893 | -5.68888 | 37923 ft | 525 kts | 19° |
| 2026-05-04 13:10 | 37.61478 | -5.64906 | 37925 ft | 525 kts | 19° |
| 2026-05-04 13:11 | 37.68039 | -5.60919 | 37927 ft | 525 kts | 20° |
| 2026-05-04 13:11 | 37.74616 | -5.56917 | 37919 ft | 524 kts | 20° |
| 2026-05-04 13:12 | 37.81187 | -5.52912 | 37918 ft | 524 kts | 20° |
| 2026-05-04 13:12 | 37.87698 | -5.48934 | 37917 ft | 523 kts | 20° |
| 2026-05-04 13:13 | 37.94255 | -5.44922 | 37915 ft | 523 kts | 20° |
| 2026-05-04 13:13 | 38.00810 | -5.40902 | 37924 ft | 523 kts | 20° |
| 2026-05-04 13:14 | 38.07359 | -5.36878 | 37913 ft | 523 kts | 20° |
| 2026-05-04 13:14 | 38.13901 | -5.32850 | 37912 ft | 522 kts | 20° |
| 2026-05-04 13:15 | 38.20435 | -5.28819 | 37908 ft | 522 kts | 20° |
| 2026-05-04 13:15 | 38.26963 | -5.24783 | 37914 ft | 522 kts | 20° |
| 2026-05-04 13:16 | 38.33497 | -5.20736 | 37910 ft | 522 kts | 20° |
| 2026-05-04 13:16 | 38.40035 | -5.16678 | 37914 ft | 522 kts | 20° |
| 2026-05-04 13:17 | 38.46571 | -5.12639 | 37914 ft | 520 kts | 17° |
| 2026-05-04 13:17 | 38.49971 | -5.11197 | 37919 ft | 510 kts | 6° |
| 2026-05-04 13:17 | 38.53441 | -5.10526 | 37916 ft | 501 kts | 355° |
| 2026-05-04 13:18 | 38.60308 | -5.10935 | 37910 ft | 493 kts | 349° |
| 2026-05-04 13:18 | 38.67141 | -5.11620 | 37906 ft | 492 kts | 348° |
| 2026-05-04 13:19 | 38.73921 | -5.12320 | 37911 ft | 492 kts | 348° |
| 2026-05-04 13:19 | 38.80746 | -5.13010 | 37906 ft | 492 kts | 348° |
| 2026-05-04 13:20 | 38.87580 | -5.13714 | 37906 ft | 492 kts | 348° |
| 2026-05-04 13:20 | 38.93296 | -5.14295 | 37900 ft | 492 kts | 350° |
| 2026-05-04 13:21 | 39.00166 | -5.13413 | 37914 ft | 511 kts | 11° |
| 2026-05-04 13:21 | 39.03522 | -5.11811 | 37918 ft | 519 kts | 22° |
| 2026-05-04 13:21 | 39.06670 | -5.09475 | 37916 ft | 525 kts | 28° |
| 2026-05-04 13:22 | 39.12829 | -5.04409 | 37903 ft | 525 kts | 28° |
| 2026-05-04 13:22 | 39.18965 | -4.99304 | 37899 ft | 525 kts | 28° |
| 2026-05-04 13:23 | 39.25113 | -4.94212 | 37897 ft | 525 kts | 28° |
| 2026-05-04 13:23 | 39.31250 | -4.89096 | 37889 ft | 525 kts | 28° |
| 2026-05-04 13:24 | 39.37383 | -4.83988 | 37875 ft | 524 kts | 28° |
| 2026-05-04 13:24 | 39.43504 | -4.78869 | 37879 ft | 524 kts | 28° |
| 2026-05-04 13:25 | 39.52685 | -4.71178 | 37876 ft | 524 kts | 28° |
| 2026-05-04 13:25 | 39.58788 | -4.66050 | 37872 ft | 523 kts | 28° |
| 2026-05-04 13:26 | 39.64902 | -4.60903 | 37871 ft | 524 kts | 28° |
| 2026-05-04 13:26 | 39.71004 | -4.55754 | 37864 ft | 524 kts | 28° |
| 2026-05-04 13:27 | 39.77111 | -4.50591 | 37860 ft | 523 kts | 28° |
| 2026-05-04 13:27 | 39.83214 | -4.45419 | 37856 ft | 524 kts | 28° |
| 2026-05-04 13:28 | 39.89316 | -4.40238 | 37852 ft | 524 kts | 28° |
| 2026-05-04 13:28 | 39.95417 | -4.35046 | 37850 ft | 524 kts | 28° |
| 2026-05-04 13:29 | 40.01795 | -4.30804 | 37850 ft | 517 kts | 20° |
| 2026-05-04 13:29 | 40.08315 | -4.26811 | 37842 ft | 518 kts | 20° |
| 2026-05-04 13:30 | 40.14839 | -4.22839 | 37843 ft | 517 kts | 20° |
| 2026-05-04 13:30 | 40.21349 | -4.18847 | 37847 ft | 517 kts | 20° |
| 2026-05-04 13:31 | 40.27857 | -4.14861 | 37846 ft | 516 kts | 20° |
| 2026-05-04 13:31 | 40.34350 | -4.10867 | 37849 ft | 516 kts | 20° |
| 2026-05-04 13:32 | 40.40850 | -4.06866 | 37851 ft | 516 kts | 20° |
| 2026-05-04 13:32 | 40.47333 | -4.02863 | 37853 ft | 516 kts | 21° |
| 2026-05-04 13:33 | 40.53127 | -3.99280 | 37859 ft | 516 kts | 21° |
| 2026-05-04 13:33 | 40.59619 | -3.95256 | 37857 ft | 516 kts | 21° |
| 2026-05-04 13:34 | 40.66117 | -3.91220 | 37859 ft | 516 kts | 21° |
| 2026-05-04 13:34 | 40.72603 | -3.87183 | 37866 ft | 516 kts | 21° |
| 2026-05-04 13:35 | 40.82333 | -3.81110 | 37871 ft | 516 kts | 21° |
| 2026-05-04 13:36 | 40.88817 | -3.77053 | 37869 ft | 515 kts | 21° |
| 2026-05-04 13:36 | 40.95295 | -3.72989 | 37876 ft | 516 kts | 21° |
| 2026-05-04 13:37 | 41.01774 | -3.68917 | 37884 ft | 515 kts | 21° |
| 2026-05-04 13:37 | 41.08256 | -3.64833 | 37880 ft | 516 kts | 22° |
| 2026-05-04 13:38 | 41.14693 | -3.60771 | 37883 ft | 516 kts | 21° |
| 2026-05-04 13:38 | 41.21301 | -3.57146 | 37886 ft | 514 kts | 19° |
| 2026-05-04 13:39 | 41.27906 | -3.53512 | 37883 ft | 514 kts | 18° |
| 2026-05-04 13:39 | 41.34524 | -3.49911 | 37889 ft | 514 kts | 19° |
| 2026-05-04 13:40 | 41.41140 | -3.46272 | 37888 ft | 515 kts | 19° |
| 2026-05-04 13:40 | 41.47759 | -3.42643 | 37885 ft | 514 kts | 19° |
| 2026-05-04 13:41 | 41.54360 | -3.39004 | 37875 ft | 514 kts | 19° |
| 2026-05-04 13:41 | 41.60968 | -3.35359 | 37888 ft | 514 kts | 19° |
| 2026-05-04 13:42 | 41.70872 | -3.29876 | 37887 ft | 514 kts | 19° |
| 2026-05-04 13:42 | 41.77478 | -3.26211 | 37887 ft | 514 kts | 19° |
| 2026-05-04 13:43 | 41.84078 | -3.22540 | 37885 ft | 514 kts | 19° |
| 2026-05-04 13:43 | 41.90679 | -3.18860 | 37892 ft | 514 kts | 19° |
| 2026-05-04 13:44 | 41.97267 | -3.15179 | 37880 ft | 513 kts | 19° |
| 2026-05-04 13:44 | 42.03851 | -3.11492 | 37882 ft | 512 kts | 20° |
| 2026-05-04 13:45 | 42.10433 | -3.07798 | 37880 ft | 512 kts | 20° |
| 2026-05-04 13:45 | 42.17009 | -3.04099 | 37888 ft | 512 kts | 20° |
| 2026-05-04 13:46 | 42.23577 | -3.00395 | 37891 ft | 511 kts | 20° |
| 2026-05-04 13:46 | 42.30147 | -2.96684 | 37889 ft | 513 kts | 20° |
| 2026-05-04 13:47 | 42.36730 | -2.92954 | 37893 ft | 513 kts | 20° |
| 2026-05-04 13:47 | 42.43308 | -2.89189 | 37890 ft | 514 kts | 24° |
| 2026-05-04 13:48 | 42.46369 | -2.86687 | 37902 ft | 517 kts | 37° |
| 2026-05-04 13:48 | 42.49106 | -2.83539 | 37890 ft | 518 kts | 40° |
| 2026-05-04 13:48 | 42.54509 | -2.77037 | 37896 ft | 518 kts | 40° |
| 2026-05-04 13:49 | 42.59894 | -2.70534 | 37905 ft | 519 kts | 40° |
| 2026-05-04 13:49 | 42.65285 | -2.64018 | 37904 ft | 519 kts | 41° |
| 2026-05-04 13:50 | 42.70669 | -2.57485 | 37916 ft | 519 kts | 41° |
| 2026-05-04 13:50 | 42.76047 | -2.50952 | 37908 ft | 519 kts | 41° |
| 2026-05-04 13:51 | 42.81423 | -2.44398 | 37914 ft | 519 kts | 41° |
| 2026-05-04 13:51 | 42.86760 | -2.37882 | 37911 ft | 518 kts | 41° |
| 2026-05-04 13:52 | 42.94801 | -2.28028 | 37900 ft | 517 kts | 41° |
| 2026-05-04 13:53 | 43.00141 | -2.21467 | 37903 ft | 518 kts | 41° |
| 2026-05-04 13:53 | 43.05490 | -2.14860 | 37909 ft | 518 kts | 41° |
| 2026-05-04 13:54 | 43.13517 | -2.04931 | 37911 ft | 519 kts | 41° |
| 2026-05-04 13:55 | 43.21544 | -1.94973 | 37920 ft | 519 kts | 42° |
| 2026-05-04 13:55 | 43.29561 | -1.84990 | 37927 ft | 519 kts | 41° |
| 2026-05-04 13:56 | 43.32433 | -1.82021 | 37947 ft | 516 kts | 28° |
| 2026-05-04 13:56 | 43.35546 | -1.79553 | 37923 ft | 518 kts | 28° |
| 2026-05-04 13:57 | 43.44664 | -1.71578 | 37930 ft | 518 kts | 32° |
| 2026-05-04 13:58 | 43.56700 | -1.60683 | 37927 ft | 517 kts | 32° |
| 2026-05-04 13:58 | 43.65702 | -1.52503 | 37919 ft | 516 kts | 33° |
| 2026-05-04 13:59 | 43.71699 | -1.47047 | 37913 ft | 516 kts | 33° |
| 2026-05-04 14:00 | 43.80679 | -1.38834 | 37890 ft | 515 kts | 33° |
| 2026-05-04 14:00 | 43.89635 | -1.30619 | 37883 ft | 515 kts | 33° |
| 2026-05-04 14:01 | 43.95616 | -1.25115 | 37872 ft | 516 kts | 33° |
| 2026-05-04 14:02 | 44.04585 | -1.16836 | 37868 ft | 515 kts | 33° |
| 2026-05-04 14:02 | 44.10461 | -1.11396 | 37868 ft | 515 kts | 33° |
| 2026-05-04 14:03 | 44.16429 | -1.05857 | 37864 ft | 516 kts | 33° |
| 2026-05-04 14:03 | 44.22402 | -1.00299 | 37864 ft | 516 kts | 33° |
| 2026-05-04 14:04 | 44.31356 | -0.91942 | 37867 ft | 516 kts | 33° |
| 2026-05-04 14:04 | 44.37275 | -0.86401 | 37861 ft | 516 kts | 33° |
| 2026-05-04 14:05 | 44.46310 | -0.79294 | 37855 ft | 515 kts | 27° |
| 2026-05-04 14:06 | 44.52668 | -0.74662 | 37842 ft | 515 kts | 27° |
| 2026-05-04 14:06 | 44.59028 | -0.70020 | 37842 ft | 515 kts | 27° |
| 2026-05-04 14:07 | 44.65370 | -0.65382 | 37841 ft | 514 kts | 27° |
| 2026-05-04 14:07 | 44.71718 | -0.60724 | 37843 ft | 514 kts | 27° |
| 2026-05-04 14:08 | 44.78058 | -0.56064 | 37843 ft | 514 kts | 27° |
| 2026-05-04 14:08 | 44.83328 | -0.52179 | 37842 ft | 514 kts | 27° |
| 2026-05-04 14:09 | 44.92830 | -0.45157 | 37839 ft | 514 kts | 27° |
| 2026-05-04 14:10 | 45.02326 | -0.38112 | 37826 ft | 514 kts | 27° |
| 2026-05-04 14:10 | 45.08652 | -0.33403 | 37821 ft | 514 kts | 27° |
| 2026-05-04 14:11 | 45.14978 | -0.28683 | 37817 ft | 513 kts | 27° |
| 2026-05-04 14:11 | 45.24412 | -0.21622 | 37818 ft | 513 kts | 27° |
| 2026-05-04 14:12 | 45.30726 | -0.16882 | 37819 ft | 514 kts | 27° |
| 2026-05-04 14:13 | 45.40198 | -0.09748 | 37815 ft | 514 kts | 27° |
| 2026-05-04 14:13 | 45.46518 | -0.04972 | 37820 ft | 514 kts | 28° |
| 2026-05-04 14:14 | 45.52831 | -0.00190 | 37827 ft | 514 kts | 28° |
| 2026-05-04 14:14 | 45.62299 | 0.07006 | 37843 ft | 515 kts | 28° |
| 2026-05-04 14:15 | 45.74841 | 0.16581 | 37836 ft | 512 kts | 28° |
| 2026-05-04 14:16 | 45.84274 | 0.23815 | 37831 ft | 513 kts | 28° |
| 2026-05-04 14:17 | 45.93704 | 0.31074 | 37830 ft | 513 kts | 28° |
| 2026-05-04 14:18 | 46.03127 | 0.38356 | 37817 ft | 512 kts | 28° |
| 2026-05-04 14:19 | 46.15686 | 0.48106 | 37816 ft | 512 kts | 28° |
| 2026-05-04 14:19 | 46.21962 | 0.52998 | 37814 ft | 513 kts | 28° |
| 2026-05-04 14:20 | 46.28239 | 0.57902 | 37816 ft | 513 kts | 28° |
| 2026-05-04 14:20 | 46.34516 | 0.62821 | 37821 ft | 513 kts | 28° |
| 2026-05-04 14:21 | 46.43920 | 0.70213 | 37819 ft | 513 kts | 28° |
| 2026-05-04 14:21 | 46.50178 | 0.75148 | 37307 ft | 513 kts | 28° |
| 2026-05-04 14:22 | 46.53363 | 0.77506 | 36820 ft | 513 kts | 20° |
| 2026-05-04 14:22 | 46.56764 | 0.79005 | 36393 ft | 511 kts | 11° |
| 2026-05-04 14:22 | 46.60250 | 0.80098 | 35928 ft | 514 kts | 11° |
| 2026-05-04 14:22 | 46.63745 | 0.81181 | 35677 ft | 511 kts | 11° |
| 2026-05-04 14:23 | 46.70650 | 0.83370 | 34766 ft | 505 kts | 12° |
| 2026-05-04 14:23 | 46.74083 | 0.84460 | 34062 ft | 505 kts | 11° |
| 2026-05-04 14:23 | 46.77515 | 0.85541 | 33313 ft | 504 kts | 12° |
| 2026-05-04 14:24 | 46.80939 | 0.86625 | 32613 ft | 501 kts | 12° |
| 2026-05-04 14:24 | 46.84289 | 0.87692 | 31931 ft | 498 kts | 12° |
| 2026-05-04 14:24 | 46.87663 | 0.88767 | 31251 ft | 495 kts | 12° |
| 2026-05-04 14:24 | 46.91009 | 0.89832 | 30672 ft | 490 kts | 12° |
| 2026-05-04 14:25 | 46.94324 | 0.90887 | 30002 ft | 487 kts | 12° |
| 2026-05-04 14:25 | 47.00893 | 0.92988 | 28642 ft | 478 kts | 12° |
| 2026-05-04 14:25 | 47.04124 | 0.94020 | 27996 ft | 473 kts | 12° |
| 2026-05-04 14:26 | 47.07064 | 0.94953 | 27387 ft | 453 kts | 12° |
| 2026-05-04 14:26 | 47.10066 | 0.95908 | 26808 ft | 433 kts | 12° |
| 2026-05-04 14:26 | 47.13008 | 0.96846 | 26222 ft | 433 kts | 12° |
| 2026-05-04 14:26 | 47.15942 | 0.97784 | 25648 ft | 431 kts | 12° |
| 2026-05-04 14:27 | 47.18858 | 0.98718 | 25075 ft | 428 kts | 12° |
| 2026-05-04 14:27 | 47.21763 | 0.99647 | 24493 ft | 425 kts | 12° |
| 2026-05-04 14:27 | 47.24642 | 1.00570 | 23930 ft | 422 kts | 12° |
| 2026-05-04 14:27 | 47.27506 | 1.01489 | 23359 ft | 420 kts | 12° |
| 2026-05-04 14:28 | 47.30347 | 1.02402 | 22753 ft | 415 kts | 12° |
| 2026-05-04 14:28 | 47.33146 | 1.03302 | 22225 ft | 409 kts | 12° |
| 2026-05-04 14:28 | 47.35916 | 1.04194 | 21668 ft | 405 kts | 12° |
| 2026-05-04 14:28 | 47.38649 | 1.05075 | 21143 ft | 400 kts | 12° |
| 2026-05-04 14:29 | 47.43972 | 1.07006 | 20119 ft | 388 kts | 21° |
| 2026-05-04 14:29 | 47.49011 | 1.09579 | 19409 ft | 381 kts | 18° |
| 2026-05-04 14:30 | 47.51520 | 1.10832 | 19101 ft | 381 kts | 19° |
| 2026-05-04 14:30 | 47.54019 | 1.12129 | 18796 ft | 380 kts | 19° |
| 2026-05-04 14:30 | 47.58992 | 1.14649 | 18194 ft | 376 kts | 19° |
| 2026-05-04 14:31 | 47.61463 | 1.15898 | 17858 ft | 374 kts | 19° |
| 2026-05-04 14:31 | 47.66354 | 1.18396 | 17273 ft | 370 kts | 19° |
| 2026-05-04 14:32 | 47.71193 | 1.20859 | 16679 ft | 365 kts | 19° |
| 2026-05-04 14:32 | 47.73588 | 1.22082 | 16387 ft | 363 kts | 19° |
| 2026-05-04 14:32 | 47.75970 | 1.23301 | 16101 ft | 361 kts | 19° |
| 2026-05-04 14:32 | 47.78343 | 1.24515 | 15815 ft | 360 kts | 19° |
| 2026-05-04 14:33 | 47.80703 | 1.25722 | 15524 ft | 358 kts | 19° |
| 2026-05-04 14:33 | 47.83022 | 1.26911 | 15243 ft | 356 kts | 19° |
| 2026-05-04 14:33 | 47.85369 | 1.28115 | 14961 ft | 354 kts | 19° |
| 2026-05-04 14:33 | 47.87660 | 1.29292 | 14687 ft | 351 kts | 19° |
| 2026-05-04 14:34 | 47.90012 | 1.30501 | 14402 ft | 350 kts | 19° |
| 2026-05-04 14:34 | 47.92274 | 1.31665 | 14124 ft | 348 kts | 19° |
| 2026-05-04 14:34 | 47.94553 | 1.32838 | 13861 ft | 346 kts | 19° |
| 2026-05-04 14:34 | 47.96851 | 1.34022 | 13557 ft | 343 kts | 19° |
| 2026-05-04 14:35 | 47.99070 | 1.35167 | 13273 ft | 341 kts | 19° |
| 2026-05-04 14:35 | 48.01309 | 1.36324 | 13010 ft | 341 kts | 19° |
| 2026-05-04 14:35 | 48.03547 | 1.37481 | 12731 ft | 339 kts | 20° |
| 2026-05-04 14:35 | 48.05746 | 1.38669 | 12461 ft | 333 kts | 25° |
| 2026-05-04 14:36 | 48.07683 | 1.40510 | 12218 ft | 330 kts | 36° |
| 2026-05-04 14:36 | 48.09570 | 1.42409 | 11938 ft | 322 kts | 34° |
| 2026-05-04 14:36 | 48.11406 | 1.44231 | 11676 ft | 312 kts | 34° |
| 2026-05-04 14:36 | 48.13174 | 1.46013 | 11422 ft | 301 kts | 35° |
| 2026-05-04 14:37 | 48.14891 | 1.47758 | 11191 ft | 297 kts | 35° |
| 2026-05-04 14:37 | 48.16492 | 1.49381 | 10973 ft | 294 kts | 35° |
| 2026-05-04 14:37 | 48.18188 | 1.51094 | 10742 ft | 294 kts | 35° |
| 2026-05-04 14:37 | 48.19874 | 1.52799 | 10511 ft | 291 kts | 35° |
| 2026-05-04 14:38 | 48.21545 | 1.54492 | 10285 ft | 289 kts | 35° |
| 2026-05-04 14:38 | 48.23187 | 1.56160 | 10045 ft | 280 kts | 35° |
| 2026-05-04 14:38 | 48.24578 | 1.58120 | 9825 ft | 275 kts | 58° |
| 2026-05-04 14:38 | 48.25557 | 1.60562 | 9603 ft | 274 kts | 58° |
| 2026-05-04 14:39 | 48.26610 | 1.62944 | 9364 ft | 273 kts | 57° |
| 2026-05-04 14:39 | 48.27636 | 1.65322 | 9160 ft | 271 kts | 58° |
| 2026-05-04 14:39 | 48.28638 | 1.67724 | 8946 ft | 271 kts | 58° |
| 2026-05-04 14:40 | 48.30638 | 1.72490 | 8517 ft | 269 kts | 58° |
| 2026-05-04 14:40 | 48.31637 | 1.74861 | 8304 ft | 268 kts | 58° |
| 2026-05-04 14:40 | 48.32627 | 1.77218 | 8094 ft | 267 kts | 58° |
| 2026-05-04 14:40 | 48.33616 | 1.79577 | 7877 ft | 267 kts | 58° |
| 2026-05-04 14:41 | 48.34601 | 1.81928 | 7664 ft | 265 kts | 58° |
| 2026-05-04 14:41 | 48.35581 | 1.84267 | 7465 ft | 265 kts | 58° |
| 2026-05-04 14:41 | 48.37410 | 1.88638 | 7055 ft | 263 kts | 58° |
| 2026-05-04 14:42 | 48.39347 | 1.93279 | 6661 ft | 262 kts | 58° |
| 2026-05-04 14:42 | 48.40312 | 1.95593 | 6448 ft | 261 kts | 58° |
| 2026-05-04 14:42 | 48.41277 | 1.97907 | 6244 ft | 260 kts | 58° |
| 2026-05-04 14:43 | 48.42236 | 2.00208 | 6034 ft | 258 kts | 59° |
| 2026-05-04 14:43 | 48.43135 | 2.02370 | 5860 ft | 255 kts | 59° |
| 2026-05-04 14:43 | 48.43935 | 2.04296 | 5709 ft | 255 kts | 58° |
| 2026-05-04 14:43 | 48.44879 | 2.06568 | 5487 ft | 256 kts | 58° |
| 2026-05-04 14:44 | 48.45822 | 2.08839 | 5308 ft | 256 kts | 58° |
| 2026-05-04 14:44 | 48.46761 | 2.11112 | 5121 ft | 256 kts | 58° |
| 2026-05-04 14:44 | 48.47700 | 2.13365 | 4912 ft | 252 kts | 58° |
| 2026-05-04 14:44 | 48.48631 | 2.15617 | 4693 ft | 253 kts | 58° |
| 2026-05-04 14:45 | 48.49536 | 2.17807 | 4497 ft | 247 kts | 58° |
| 2026-05-04 14:45 | 48.50423 | 2.19951 | 4298 ft | 235 kts | 58° |
| 2026-05-04 14:45 | 48.51270 | 2.22003 | 4109 ft | 226 kts | 58° |
| 2026-05-04 14:45 | 48.52075 | 2.23954 | 3933 ft | 218 kts | 58° |
| 2026-05-04 14:46 | 48.52852 | 2.25838 | 3798 ft | 205 kts | 58° |
| 2026-05-04 14:46 | 48.53560 | 2.27548 | 3632 ft | 194 kts | 57° |
| 2026-05-04 14:46 | 48.54553 | 2.28803 | 3459 ft | 184 kts | 28° |
| 2026-05-04 14:46 | 48.55684 | 2.29542 | 3350 ft | 168 kts | 22° |
| 2026-05-04 14:47 | 48.56696 | 2.30093 | 3234 ft | 152 kts | 20° |
| 2026-05-04 14:47 | 48.57721 | 2.30619 | 3111 ft | 153 kts | 19° |
| 2026-05-04 14:47 | 48.58719 | 2.31120 | 3001 ft | 149 kts | 19° |
| 2026-05-04 14:47 | 48.59720 | 2.31621 | 2838 ft | 153 kts | 19° |
| 2026-05-04 14:48 | 48.60720 | 2.32122 | 2633 ft | 151 kts | 19° |
| 2026-05-04 14:48 | 48.61719 | 2.32622 | 2436 ft | 151 kts | 19° |
| 2026-05-04 14:48 | 48.62700 | 2.33114 | 2225 ft | 150 kts | 19° |
| 2026-05-04 14:48 | 48.63684 | 2.33606 | 2037 ft | 149 kts | 19° |
| 2026-05-04 14:49 | 48.64667 | 2.34099 | 1834 ft | 149 kts | 20° |
| 2026-05-04 14:49 | 48.65648 | 2.34592 | 1620 ft | 147 kts | 20° |
| 2026-05-04 14:49 | 48.66624 | 2.35083 | 1406 ft | 148 kts | 20° |
| 2026-05-04 14:49 | 48.67592 | 2.35570 | 1205 ft | 147 kts | 19° |
| 2026-05-04 14:50 | 48.68566 | 2.36063 | 1007 ft | 147 kts | 20° |
| 2026-05-04 14:50 | 48.69525 | 2.36552 | 806 ft | 146 kts | 20° |
| 2026-05-04 14:50 | 48.70492 | 2.37037 | 626 ft | 146 kts | 19° |
| 2026-05-04 14:50 | 48.71460 | 2.37526 | 417 ft | 147 kts | 19° |
| 2026-05-04 14:51 | 48.72400 | 2.38000 | 314 ft | 130 kts | 18° |
| 2026-05-04 14:51 | 48.73116 | 2.38352 | 312 ft | 84 kts | 18° |
| 2026-05-04 14:51 | 48.73490 | 2.38539 | 312 ft | 33 kts | 18° |
| 2026-05-04 14:51 | 48.73606 | 2.38596 | 311 ft | 16 kts | 18° |
| 2026-05-04 14:52 | 48.73702 | 2.38642 | 309 ft | 14 kts | 12° |
| 2026-05-04 14:52 | 48.73790 | 2.38622 | 310 ft | 12 kts | 324° |
| 2026-05-04 14:52 | 48.73808 | 2.38552 | 309 ft | 4 kts | 268° |
| 2026-05-04 14:52 | 48.73800 | 2.38508 | 307 ft | 4 kts | 248° |
| 2026-05-04 14:53 | 48.73783 | 2.38458 | 309 ft | 6 kts | 242° |
| 2026-05-04 14:53 | 48.73778 | 2.38443 | 310 ft | 2 kts | 243° |
| 2026-05-04 14:53 | 48.73765 | 2.38407 | 308 ft | 6 kts | 243° |
| 2026-05-04 14:53 | 48.73742 | 2.38334 | 311 ft | 9 kts | 244° |
| 2026-05-04 14:54 | 48.73706 | 2.38238 | 312 ft | 10 kts | 226° |
| 2026-05-04 14:54 | 48.73635 | 2.38185 | 312 ft | 13 kts | 200° |
| 2026-05-04 14:54 | 48.73543 | 2.38137 | 311 ft | 15 kts | 198° |
| 2026-05-04 14:54 | 48.73468 | 2.38100 | 307 ft | 15 kts | 198° |
| 2026-05-04 14:55 | 48.73364 | 2.38046 | 310 ft | 16 kts | 199° |
| 2026-05-04 14:55 | 48.73295 | 2.38011 | 309 ft | 16 kts | 198° |
| 2026-05-04 14:55 | 48.73167 | 2.37948 | 309 ft | 14 kts | 198° |
| 2026-05-04 14:55 | 48.73073 | 2.37901 | 310 ft | 14 kts | 198° |
| 2026-05-04 14:56 | 48.72981 | 2.37856 | 310 ft | 14 kts | 198° |
| 2026-05-04 14:56 | 48.72890 | 2.37810 | 311 ft | 14 kts | 198° |
| 2026-05-04 14:56 | 48.72811 | 2.37742 | 310 ft | 12 kts | 234° |
| 2026-05-04 14:56 | 48.72790 | 2.37663 | 312 ft | 12 kts | 251° |
| 2026-05-04 14:57 | 48.72758 | 2.37501 | 309 ft | 12 kts | 254° |
| 2026-05-04 14:57 | 48.72743 | 2.37417 | 309 ft | 12 kts | 255° |
| 2026-05-04 14:57 | 48.72720 | 2.37292 | 309 ft | 12 kts | 254° |
| 2026-05-04 14:57 | 48.72709 | 2.37235 | 309 ft | 0 kts | 258° |
| 2026-05-04 14:58 | 48.72710 | 2.37233 | 309 ft | 1 kts | 262° |
| 2026-05-04 14:58 | 48.72712 | 2.37219 | 308 ft | 2 kts | 289° |
| 2026-05-04 14:58 | 48.72724 | 2.37203 | 312 ft | 3 kts | 323° |
| 2026-05-04 14:58 | 48.72737 | 2.37192 | 310 ft | 0 kts | 334° |
| 2026-05-04 14:59 | 48.72743 | 2.37189 | 311 ft | 2 kts | 336° |
| 2026-05-04 14:59 | 48.72749 | 2.37185 | 310 ft | 0 kts | 338° |